Time;durP1;ratioP1;P1;durP2;ratioP2;P2;SDS_P1;SDS_P2;PMS_P1;PMS_P2;Temp;Humidity;BMP_temperature;BMP_pressure;BME280_temperature;BME280_humidity;BME280_pressure;Samples;Min_cycle;Max_cycle;Signal;HPM_P1;HPM_P2
2021/06/01 00:00:11;;;;;;;4.25;4.05;;;;;;;13.15;61.51;101505.31;4417711;32;20617;-69
2021/06/01 00:02:37;;;;;;;4.30;4.10;;;;;;;13.07;61.47;101517.16;4427008;32;20883;-69
2021/06/01 00:05:04;;;;;;;4.18;3.97;;;;;;;12.95;62.14;101513.38;4432439;32;20447;-69
2021/06/01 00:07:29;;;;;;;4.40;4.20;;;;;;;12.83;63.10;101506.03;4434267;32;20087;-68
2021/06/01 00:09:54;;;;;;;4.75;4.55;;;;;;;12.40;63.36;101450.19;4430812;32;20059;-69
2021/06/01 00:12:20;;;;;;;4.50;4.30;;;;;;;11.48;64.08;101305.41;4443925;32;20222;-68
2021/06/01 00:14:45;;;;;;;4.18;3.97;;;;;;;12.57;64.50;101503.75;4447930;32;20076;-68
2021/06/01 00:17:10;;;;;;;4.10;3.90;;;;;;;12.56;65.10;101498.56;4433567;32;20082;-68
2021/06/01 00:19:36;;;;;;;4.30;4.10;;;;;;;12.53;63.86;101499.56;4438586;32;20063;-68
2021/06/01 00:22:01;;;;;;;4.10;3.90;;;;;;;12.51;63.87;101497.94;4440729;32;20164;-68
2021/06/01 00:24:27;;;;;;;4.28;4.07;;;;;;;12.49;63.99;101499.78;4431990;32;20076;-68
2021/06/01 00:26:52;;;;;;;4.40;4.20;;;;;;;12.47;63.86;101496.34;4441462;32;20071;-68
2021/06/01 00:29:17;;;;;;;4.10;3.90;;;;;;;12.41;64.57;101500.16;4445138;32;20073;-68
2021/06/01 00:31:43;;;;;;;4.20;4.00;;;;;;;12.36;63.95;101497.69;4420339;32;20068;-68
2021/06/01 00:34:08;;;;;;;4.50;4.30;;;;;;;12.34;63.58;101501.34;4434870;32;20114;-69
2021/06/01 00:36:34;;;;;;;4.40;4.20;;;;;;;12.31;63.99;101501.50;4432533;32;20060;-68
2021/06/01 00:38:59;;;;;;;4.30;4.10;;;;;;;12.30;63.00;101499.78;4431326;32;20075;-67
2021/06/01 00:41:24;;;;;;;4.18;3.97;;;;;;;12.30;63.16;101497.16;4434388;32;20578;-68
2021/06/01 00:43:50;;;;;;;5.18;4.90;;;;;;;12.12;62.48;101477.81;4446388;32;20115;-68
2021/06/01 00:46:15;;;;;;;4.47;4.18;;;;;;;12.29;62.48;101496.31;4431128;32;20542;-68
2021/06/01 00:48:40;;;;;;;4.28;4.07;;;;;;;12.25;66.26;101501.75;4443395;32;20080;-67
2021/06/01 00:51:06;;;;;;;4.30;4.10;;;;;;;12.21;64.68;101505.47;4438709;32;20075;-68
2021/06/01 00:53:31;;;;;;;4.30;4.10;;;;;;;12.17;63.70;101512.66;4444564;32;20068;-69
2021/06/01 00:55:57;;;;;;;4.25;4.05;;;;;;;12.13;63.89;101513.72;4441851;32;20068;-68
2021/06/01 00:58:24;;;;;;;4.30;4.10;;;;;;;12.07;64.26;101514.00;4443661;32;20076;-67
2021/06/01 01:01:16;;;;;;;4.35;4.15;;;;;;;12.02;64.13;101505.47;4440205;32;20119;-68
2021/06/01 01:03:41;;;;;;;4.28;4.07;;;;;;;11.96;64.89;101511.84;4433720;32;20116;-68
2021/06/01 01:06:18;;;;;;;4.30;4.10;;;;;;;11.92;65.35;101510.28;4432305;32;20618;-68
2021/06/01 01:08:54;;;;;;;4.75;4.45;;;;;;;11.87;65.53;101509.62;4435934;32;20091;-68
2021/06/01 01:11:34;;;;;;;4.25;4.05;;;;;;;11.77;66.56;101507.38;4431830;32;20162;-68
2021/06/01 01:14:09;;;;;;;4.28;4.07;;;;;;;11.72;67.89;101508.50;4452927;32;20086;-68
2021/06/01 01:16:35;;;;;;;4.30;4.10;;;;;;;11.64;67.69;101503.56;4430334;32;20072;-67
2021/06/01 01:19:04;;;;;;;4.30;4.10;;;;;;;10.57;67.70;101333.88;4431888;32;20667;-69
2021/06/01 01:21:56;;;;;;;4.50;4.30;;;;;;;11.53;67.86;101505.81;4445878;32;20071;-67
2021/06/01 01:24:57;;;;;;;4.35;4.15;;;;;;;11.49;68.81;101506.88;4447706;32;20076;-67
2021/06/01 01:27:42;;;;;;;4.30;4.10;;;;;;;11.46;68.18;101509.62;4433727;32;20276;-67
2021/06/01 01:30:08;;;;;;;4.22;4.03;;;;;;;11.44;69.01;101506.22;4441648;32;20492;-68
2021/06/01 01:32:53;;;;;;;4.30;4.10;;;;;;;11.43;68.18;101507.16;4434102;32;20076;-68
2021/06/01 01:35:18;;;;;;;4.70;4.50;;;;;;;11.41;67.94;101506.34;4436968;32;20077;-67
2021/06/01 01:37:44;;;;;;;4.40;4.20;;;;;;;11.39;67.27;101501.16;4445875;32;20126;-67
2021/06/01 01:40:10;;;;;;;4.28;4.07;;;;;;;11.39;67.52;101506.41;4439257;32;20227;-68
2021/06/01 01:42:41;;;;;;;4.30;4.10;;;;;;;11.38;66.50;101499.44;4442939;32;20633;-67
2021/06/01 01:45:09;;;;;;;4.20;4.00;;;;;;;11.39;66.61;101501.16;4429346;32;20083;-68
2021/06/01 01:50:12;;;;;;;4.50;4.30;;;;;;;11.40;65.00;101497.59;4442346;32;21036;-68
2021/06/01 01:52:38;;;;;;;4.30;4.10;;;;;;;11.42;64.94;101502.78;4427840;32;20079;-67
2021/06/01 01:55:06;;;;;;;4.00;3.80;;;;;;;11.43;64.38;101505.38;4427403;32;20195;-68
2021/06/01 01:57:31;;;;;;;4.10;3.90;;;;;;;11.44;63.48;101504.44;4414617;32;20079;-68
2021/06/01 01:59:57;;;;;;;4.80;4.60;;;;;;;11.42;62.70;101497.53;4428126;32;20472;-68
2021/06/01 02:02:22;;;;;;;4.37;4.18;;;;;;;11.40;62.32;101488.88;4427558;32;20107;-68
2021/06/01 02:04:47;;;;;;;4.10;3.90;;;;;;;11.44;62.48;101503.59;4429913;32;20079;-68
2021/06/01 02:07:13;;;;;;;4.30;4.10;;;;;;;11.38;63.77;101504.69;4422295;32;20138;-68
2021/06/01 02:09:38;;;;;;;4.25;4.05;;;;;;;11.18;64.62;101489.78;4425078;32;20068;-68
2021/06/01 02:12:04;;;;;;;4.30;4.10;;;;;;;11.20;65.11;101505.47;4442639;32;20079;-68
2021/06/01 02:14:29;;;;;;;4.35;4.15;;;;;;;11.11;65.17;101507.56;4445277;32;20143;-68
2021/06/01 02:16:57;;;;;;;4.03;3.85;;;;;;;11.07;65.69;101508.63;4466842;32;20068;-68
2021/06/01 02:19:23;;;;;;;4.20;4.00;;;;;;;11.03;65.00;101506.19;4443332;32;20075;-68
2021/06/01 02:24:23;;;;;;;4.18;3.97;;;;;;;10.97;65.89;101505.50;4436357;32;20080;-68
2021/06/01 02:27:02;;;;;;;3.80;3.70;;;;;;;10.98;65.78;101514.25;4439206;32;20179;-68
2021/06/01 02:29:32;;;;;;;3.85;3.75;;;;;;;10.96;65.36;101506.44;4445520;32;20067;-68
2021/06/01 02:31:58;;;;;;;4.12;3.92;;;;;;;10.57;65.77;101449.38;4428411;32;20073;-68
2021/06/01 02:34:23;;;;;;;4.30;4.10;;;;;;;10.85;67.87;101506.00;4403536;32;20091;-67
2021/06/01 02:36:50;;;;;;;4.10;3.90;;;;;;;10.83;67.73;101501.75;4416528;32;20072;-68
2021/06/01 02:39:16;;;;;;;4.10;3.90;;;;;;;10.80;67.93;101501.84;4416087;32;20103;-68
2021/06/01 02:41:42;;;;;;;4.12;3.92;;;;;;;10.74;68.60;101498.56;4412025;32;20069;-67
2021/06/01 02:44:07;;;;;;;4.47;4.28;;;;;;;10.70;68.47;101499.59;4415073;32;20064;-68
2021/06/01 02:46:32;;;;;;;4.20;4.00;;;;;;;10.67;67.98;101504.13;4432971;32;20585;-69
2021/06/01 02:48:58;;;;;;;4.20;4.00;;;;;;;10.62;67.72;101499.03;4429557;32;20076;-67
2021/06/01 02:51:23;;;;;;;4.10;3.90;;;;;;;10.58;68.06;101489.56;4419310;32;20711;-68
2021/06/01 02:53:53;;;;;;;4.32;4.12;;;;;;;10.45;67.82;101483.97;4427627;32;20083;-68
2021/06/01 02:56:18;;;;;;;4.30;4.10;;;;;;;10.55;67.33;101487.94;4440667;32;20137;-68
2021/06/01 02:58:45;;;;;;;4.65;4.45;;;;;;;10.52;67.30;101489.81;4432081;32;20088;-70
2021/06/01 03:01:12;;;;;;;4.20;4.00;;;;;;;10.50;67.46;101495.16;4428334;32;20674;-68
2021/06/01 03:03:42;;;;;;;4.10;3.90;;;;;;;10.47;67.46;101500.50;4439516;32;20061;-68
2021/06/01 03:06:07;;;;;;;5.37;5.18;;;;;;;10.46;68.20;101495.31;4431609;32;20068;-68
2021/06/01 03:08:33;;;;;;;3.80;3.70;;;;;;;10.38;68.28;101486.00;4440385;32;20129;-68
2021/06/01 03:11:01;;;;;;;4.03;3.83;;;;;;;10.41;67.08;101494.66;4440597;32;20534;-68
2021/06/01 03:13:27;;;;;;;4.10;3.90;;;;;;;10.38;67.42;101493.84;4437611;32;20073;-68
2021/06/01 03:15:52;;;;;;;4.10;3.90;;;;;;;10.26;67.54;101475.91;4439750;32;20072;-67
2021/06/01 03:18:18;;;;;;;4.47;4.18;;;;;;;10.35;68.21;101520.19;4439335;32;20071;-68
2021/06/01 03:20:44;;;;;;;3.80;3.70;;;;;;;10.35;67.70;101496.59;4437037;32;20421;-67
2021/06/01 03:23:09;;;;;;;4.07;3.87;;;;;;;10.34;67.49;101499.25;4449381;32;20185;-67
2021/06/01 03:25:34;;;;;;;4.07;3.87;;;;;;;10.33;68.19;101508.06;4429378;32;20061;-69
2021/06/01 03:28:00;;;;;;;4.15;3.95;;;;;;;10.32;67.86;101501.97;4437814;32;20064;-68
2021/06/01 03:30:25;;;;;;;4.00;3.80;;;;;;;10.33;68.70;101495.78;4444999;32;20060;-68
2021/06/01 03:32:51;;;;;;;4.20;4.00;;;;;;;10.31;67.60;101500.25;4438209;32;20076;-69
2021/06/01 03:35:16;;;;;;;3.92;3.80;;;;;;;10.30;68.61;101493.31;4428124;32;20130;-68
2021/06/01 03:37:41;;;;;;;4.18;3.97;;;;;;;10.32;67.60;101493.22;4428390;32;20601;-69
2021/06/01 03:40:07;;;;;;;4.20;4.00;;;;;;;9.95;67.48;101429.87;4423764;32;20146;-68
2021/06/01 03:42:33;;;;;;;4.00;3.80;;;;;;;10.37;68.06;101496.53;4438664;32;20194;-68
2021/06/01 03:44:58;;;;;;;4.07;3.90;;;;;;;10.37;67.56;101497.38;4429177;32;20075;-69
2021/06/01 03:47:23;;;;;;;4.12;3.92;;;;;;;10.33;68.35;101489.69;4427637;32;20686;-68
2021/06/01 03:49:49;;;;;;;3.95;3.78;;;;;;;10.44;67.17;101502.38;4429004;32;20076;-68
2021/06/01 03:52:14;;;;;;;4.15;3.95;;;;;;;10.44;67.26;101498.00;4427772;32;20336;-68
2021/06/01 03:54:40;;;;;;;4.70;4.30;;;;;;;10.48;67.56;101501.34;4423692;32;20076;-68
2021/06/01 03:57:06;;;;;;;4.12;3.92;;;;;;;10.52;66.86;101505.56;4429924;32;20075;-70
2021/06/01 03:59:31;;;;;;;4.70;4.50;;;;;;;10.57;67.31;101507.09;4442589;32;20626;-68
2021/06/01 04:01:57;;;;;;;4.20;4.00;;;;;;;10.64;66.16;101502.47;4427654;32;20207;-69
2021/06/01 04:04:22;;;;;;;3.75;3.65;;;;;;;10.70;66.13;101501.37;4428189;32;20076;-69
2021/06/01 04:06:47;;;;;;;4.25;4.05;;;;;;;10.87;65.62;101503.34;4453860;32;20073;-70
2021/06/01 04:09:13;;;;;;;4.10;3.90;;;;;;;11.62;63.95;101504.56;4452421;32;20180;-68
2021/06/01 04:11:38;;;;;;;4.10;3.90;;;;;;;12.78;61.64;101496.59;4430462;32;20198;-69
2021/06/01 04:14:04;;;;;;;4.30;4.10;;;;;;;14.05;58.56;101498.94;4430333;32;20895;-69
2021/06/01 04:16:29;;;;;;;4.53;4.32;;;;;;;15.09;55.66;101494.87;4438218;32;20065;-67
2021/06/01 04:18:55;;;;;;;4.40;4.20;;;;;;;15.86;53.08;101490.34;4441045;32;20678;-68
2021/06/01 04:21:20;;;;;;;4.50;4.30;;;;;;;16.61;51.21;101489.16;4440448;32;20090;-69
2021/06/01 04:23:46;;;;;;;4.95;4.65;;;;;;;17.23;49.57;101489.47;4428023;32;20218;-69
2021/06/01 04:26:11;;;;;;;4.90;4.70;;;;;;;17.71;48.14;101488.88;4433081;32;20125;-70
2021/06/01 04:28:36;;;;;;;4.70;4.50;;;;;;;18.19;46.68;101483.72;4444405;32;20582;-67
2021/06/01 04:31:02;;;;;;;4.90;4.50;;;;;;;18.59;45.37;101490.63;4428246;32;20080;-70
2021/06/01 04:33:27;;;;;;;4.60;4.40;;;;;;;18.97;44.51;101494.94;4416895;32;20079;-69
2021/06/01 04:35:52;;;;;;;4.75;4.55;;;;;;;19.35;44.39;101492.03;4412699;32;20079;-69
2021/06/01 04:38:18;;;;;;;4.85;4.65;;;;;;;19.72;43.03;101489.19;4415822;32;20145;-69
2021/06/01 04:40:43;;;;;;;4.80;4.60;;;;;;;19.98;43.26;101488.97;4421365;32;20075;-69
2021/06/01 04:43:09;;;;;;;5.00;4.80;;;;;;;20.12;43.28;101489.53;4407152;32;20645;-69
2021/06/01 04:45:35;;;;;;;5.40;5.10;;;;;;;20.31;41.99;101488.94;4412924;32;20137;-71
2021/06/01 04:48:00;;;;;;;4.90;4.70;;;;;;;20.12;40.13;101473.56;4423318;32;20604;-69
2021/06/01 04:50:26;;;;;;;5.43;5.05;;;;;;;20.17;40.00;101475.88;4420996;32;20064;-69
2021/06/01 04:52:51;;;;;;;5.12;4.93;;;;;;;20.78;39.69;101475.34;4418306;32;20129;-69
2021/06/01 04:55:16;;;;;;;5.10;4.90;;;;;;;20.87;37.75;101466.59;4422808;32;20063;-69
2021/06/01 04:57:42;;;;;;;5.30;5.00;;;;;;;21.21;37.22;101478.91;4419541;32;20076;-70
2021/06/01 05:00:08;;;;;;;5.60;5.30;;;;;;;21.46;37.99;101475.03;4416716;32;20425;-69
2021/06/01 05:02:34;;;;;;;5.35;5.05;;;;;;;20.70;37.49;101483.16;4414739;32;20084;-69
2021/06/01 05:04:59;;;;;;;5.15;4.95;;;;;;;20.87;36.36;101479.09;4417554;32;20073;-70
2021/06/01 05:07:24;;;;;;;5.37;5.07;;;;;;;20.93;37.18;101475.91;4425563;32;20632;-69
2021/06/01 05:09:50;;;;;;;5.20;5.00;;;;;;;21.17;36.82;101483.69;4427989;32;20086;-69
2021/06/01 05:12:15;;;;;;;5.40;5.10;;;;;;;21.70;37.02;101477.41;4431495;32;20119;-70
2021/06/01 05:14:40;;;;;;;5.30;5.03;;;;;;;20.50;37.47;101471.41;4426633;32;20075;-69
2021/06/01 05:17:06;;;;;;;5.28;5.07;;;;;;;20.75;37.98;101482.75;4429131;32;20087;-69
2021/06/01 05:19:31;;;;;;;5.32;5.12;;;;;;;21.50;36.95;101477.28;4427810;32;20661;-69
2021/06/01 05:21:56;;;;;;;5.57;5.18;;;;;;;21.92;35.48;101474.53;4426645;32;20076;-68
2021/06/01 05:24:22;;;;;;;5.05;4.85;;;;;;;22.37;34.59;101477.78;4454773;32;20129;-70
2021/06/01 05:26:47;;;;;;;5.22;5.03;;;;;;;22.09;34.03;101474.84;4447005;32;20086;-70
2021/06/01 05:29:12;;;;;;;5.40;5.10;;;;;;;21.55;34.66;101476.91;4446079;32;20090;-69
2021/06/01 05:31:56;;;;;;;5.07;4.87;;;;;;;22.15;34.95;101482.34;4473792;32;20889;-70
2021/06/01 05:34:23;;;;;;;5.50;5.20;;;;;;;22.24;33.39;101478.88;4453276;32;20067;-69
2021/06/01 05:36:48;;;;;;;5.10;4.90;;;;;;;22.01;34.76;101480.03;4442050;32;20116;-70
2021/06/01 05:39:14;;;;;;;5.40;5.10;;;;;;;21.33;35.22;101467.19;4456189;32;20064;-69
2021/06/01 05:41:39;;;;;;;5.18;4.97;;;;;;;21.91;35.45;101474.69;4443921;32;20084;-70
2021/06/01 05:44:05;;;;;;;5.22;5.03;;;;;;;22.04;35.08;101472.59;4446286;32;20071;-70
2021/06/01 05:46:30;;;;;;;5.03;4.82;;;;;;;21.95;34.61;101476.09;4440458;32;20578;-69
2021/06/01 05:48:55;;;;;;;5.30;5.10;;;;;;;21.93;35.38;101475.41;4442033;32;20068;-70
2021/06/01 05:51:28;;;;;;;5.32;5.12;;;;;;;22.21;33.90;101470.25;4462434;32;20087;-70
2021/06/01 05:53:53;;;;;;;5.47;5.18;;;;;;;21.91;34.86;101475.53;4449179;32;20082;-70
2021/06/01 05:56:18;;;;;;;5.72;5.43;;;;;;;21.41;35.27;101471.84;4434941;32;20076;-70
2021/06/01 05:58:44;;;;;;;5.57;5.03;;;;;;;21.16;36.04;101462.44;4444125;32;20615;-69
2021/06/01 06:01:09;;;;;;;5.30;5.10;;;;;;;21.99;34.90;101474.84;4432772;32;20142;-70
2021/06/01 06:03:35;;;;;;;5.62;5.32;;;;;;;22.08;34.61;101471.34;4422956;32;20122;-69
2021/06/01 06:06:03;;;;;;;5.10;4.90;;;;;;;22.25;34.62;101472.56;4429889;32;20080;-68
2021/06/01 06:08:29;;;;;;;5.10;4.90;;;;;;;21.95;34.91;101453.84;4440269;32;20072;-71
2021/06/01 06:10:55;;;;;;;5.25;4.95;;;;;;;22.17;34.08;101472.38;4457556;31;20147;-71
2021/06/01 06:13:20;;;;;;;5.25;5.05;;;;;;;22.56;34.37;101469.78;4470797;32;20628;-69
2021/06/01 06:15:46;;;;;;;5.20;5.00;;;;;;;22.41;34.49;101473.84;4438451;32;20088;-73
2021/06/01 06:18:17;;;;;;;5.40;5.10;;;;;;;22.67;33.43;101471.47;4440225;32;20091;-73
2021/06/01 06:20:43;;;;;;;5.17;4.97;;;;;;;22.44;33.17;101465.56;4459602;31;20620;-71
2021/06/01 06:23:08;;;;;;;5.15;4.95;;;;;;;21.88;35.01;101470.44;4428251;32;20084;-72
2021/06/01 06:25:33;;;;;;;5.30;5.00;;;;;;;21.59;35.59;101472.12;4424996;32;20455;-74
2021/06/01 06:27:59;;;;;;;5.10;4.90;;;;;;;21.03;36.45;101470.66;4413057;32;20080;-68
2021/06/01 06:30:24;;;;;;;5.50;5.20;;;;;;;20.57;37.45;101464.63;4416451;32;20064;-70
2021/06/01 06:32:51;;;;;;;5.40;5.20;;;;;;;20.20;37.25;101472.09;4426926;32;20073;-72
2021/06/01 06:35:16;;;;;;;5.22;5.03;;;;;;;19.92;37.99;101472.50;4414425;32;20087;-71
2021/06/01 06:37:41;;;;;;;5.87;5.57;;;;;;;19.86;39.86;101472.97;4425441;32;20422;-71
2021/06/01 06:40:09;;;;;;;5.60;5.30;;;;;;;19.87;38.94;101466.69;4410803;32;20169;-69
2021/06/01 06:42:36;;;;;;;5.65;5.37;;;;;;;19.51;38.88;101465.91;4418415;32;20076;-70
2021/06/01 06:45:01;;;;;;;5.18;4.97;;;;;;;19.40;39.56;101471.22;4412101;32;20338;-71
2021/06/01 06:47:42;;;;;;;5.10;4.90;;;;;;;19.69;39.25;101465.44;4412741;32;20321;-69
2021/06/01 06:50:09;;;;;;;5.50;5.20;;;;;;;19.48;39.36;101465.28;4418748;32;20137;-69
2021/06/01 06:52:35;;;;;;;5.43;5.07;;;;;;;19.47;39.21;101472.44;4427285;32;20069;-69
2021/06/01 06:55:00;;;;;;;5.15;4.90;;;;;;;19.44;39.57;101463.84;4426296;32;20434;-70
2021/06/01 06:57:26;;;;;;;5.30;5.10;;;;;;;19.38;39.03;101448.34;4413937;32;20230;-70
2021/06/01 06:59:51;;;;;;;5.80;5.37;;;;;;;19.19;39.30;101467.56;4412537;32;20064;-69
2021/06/01 07:02:16;;;;;;;5.15;4.95;;;;;;;19.32;39.39;101468.28;4401235;32;20069;-70
2021/06/01 07:04:42;;;;;;;5.00;4.80;;;;;;;19.53;38.71;101460.47;4414998;32;20142;-69
2021/06/01 07:07:07;;;;;;;5.70;5.40;;;;;;;19.65;39.02;101461.34;4400224;32;20080;-69
2021/06/01 07:09:37;;;;;;;5.37;5.18;;;;;;;19.75;38.01;101454.34;4413930;32;20134;-69
2021/06/01 07:12:03;;;;;;;5.18;4.95;;;;;;;19.86;37.97;101453.47;4414717;32;20110;-70
2021/06/01 07:14:38;;;;;;;4.97;4.78;;;;;;;19.81;38.22;101427.22;4413556;32;20693;-69
2021/06/01 07:17:03;;;;;;;4.90;4.70;;;;;;;20.14;38.58;101452.12;4422721;32;20091;-68
2021/06/01 07:19:28;;;;;;;5.10;4.90;;;;;;;20.21;37.56;101460.47;4400212;32;20088;-69
2021/06/01 07:21:54;;;;;;;5.10;4.90;;;;;;;20.50;37.86;101452.75;4432263;32;20795;-70
2021/06/01 07:24:19;;;;;;;5.00;4.80;;;;;;;20.66;37.40;101452.38;4428713;32;20089;-72
2021/06/01 07:26:45;;;;;;;5.55;5.20;;;;;;;20.74;37.01;101457.91;4424876;32;20154;-73
2021/06/01 07:29:10;;;;;;;4.87;4.68;;;;;;;20.72;37.20;101444.69;4425533;32;20595;-71
2021/06/01 07:31:35;;;;;;;4.85;4.65;;;;;;;20.64;36.56;101451.66;4417082;32;20114;-71
2021/06/01 07:34:01;;;;;;;4.95;4.65;;;;;;;20.63;37.29;101455.31;4410127;32;20091;-73
2021/06/01 07:36:26;;;;;;;4.90;4.70;;;;;;;20.55;36.08;101447.91;4414082;32;20574;-74
2021/06/01 07:38:51;;;;;;;5.12;4.93;;;;;;;20.45;36.31;101445.16;4429273;32;20110;-71
2021/06/01 07:41:17;;;;;;;4.80;4.60;;;;;;;20.43;36.31;101448.91;4424027;32;20443;-73
2021/06/01 07:43:42;;;;;;;4.82;4.62;;;;;;;20.48;36.58;101446.69;4430059;32;20985;-72
2021/06/01 07:46:07;;;;;;;4.90;4.70;;;;;;;19.44;36.35;101280.16;4423768;32;20081;-69
2021/06/01 07:48:36;;;;;;;4.80;4.60;;;;;;;20.72;37.19;101452.69;4416621;32;20122;-69
2021/06/01 07:51:02;;;;;;;4.95;4.75;;;;;;;20.95;37.03;101452.62;4416608;32;20635;-69
2021/06/01 07:53:27;;;;;;;5.15;4.95;;;;;;;20.87;36.77;101444.41;4419076;32;20579;-70
2021/06/01 07:55:53;;;;;;;4.90;4.70;;;;;;;20.78;36.86;101430.00;4419731;32;20076;-69
2021/06/01 07:58:19;;;;;;;5.70;5.32;;;;;;;21.20;37.29;101437.19;4418260;32;20704;-69
2021/06/01 08:00:44;;;;;;;4.90;4.70;;;;;;;21.21;35.94;101436.19;4419038;32;20562;-69
2021/06/01 08:03:10;;;;;;;4.78;4.57;;;;;;;21.40;36.72;101432.78;4424789;32;20088;-69
2021/06/01 08:05:35;;;;;;;5.45;5.00;;;;;;;21.46;36.02;101432.28;4427141;32;20072;-70
2021/06/01 08:08:01;;;;;;;5.20;4.80;;;;;;;21.30;35.99;101428.25;4426214;32;20052;-69
2021/06/01 08:10:27;;;;;;;5.20;4.90;;;;;;;21.24;37.70;101427.94;4425467;32;20593;-69
2021/06/01 08:12:54;;;;;;;4.85;4.65;;;;;;;21.39;35.84;101429.28;4443074;32;20083;-68
2021/06/01 08:15:20;;;;;;;4.90;4.60;;;;;;;21.14;36.50;101384.31;4422103;32;20103;-69
2021/06/01 08:17:46;;;;;;;4.87;4.57;;;;;;;21.36;36.25;101372.63;4418555;32;20083;-70
2021/06/01 08:20:26;;;;;;;5.10;4.80;;;;;;;21.65;35.68;101416.34;4424054;32;20064;-70
2021/06/01 08:22:51;;;;;;;4.82;4.62;;;;;;;21.79;34.96;101417.81;4423443;32;20137;-71
2021/06/01 08:25:17;;;;;;;5.00;4.80;;;;;;;21.97;35.22;101422.50;4426901;32;20085;-69
2021/06/01 08:27:42;;;;;;;5.00;4.80;;;;;;;22.00;34.37;101424.91;4422173;32;20926;-72
2021/06/01 08:30:08;;;;;;;4.97;4.78;;;;;;;22.00;34.97;101419.56;4442820;32;20067;-70
2021/06/01 08:32:33;;;;;;;4.87;4.68;;;;;;;22.07;34.21;101410.00;4445319;32;20083;-69
2021/06/01 08:34:59;;;;;;;5.10;4.80;;;;;;;22.28;35.11;101408.09;4429489;32;20610;-70
2021/06/01 08:37:24;;;;;;;5.30;5.00;;;;;;;21.83;34.05;101413.03;4419594;32;20059;-71
2021/06/01 08:39:49;;;;;;;5.07;4.87;;;;;;;22.03;34.38;101411.25;4447448;32;20080;-70
2021/06/01 08:42:15;;;;;;;5.20;5.00;;;;;;;22.07;32.69;101407.31;4401209;32;20073;-69
2021/06/01 08:44:40;;;;;;;5.60;5.30;;;;;;;22.15;33.68;101402.16;4431652;32;20546;-69
2021/06/01 08:47:06;;;;;;;4.95;4.75;;;;;;;22.19;32.18;101387.53;4402471;32;20073;-71
2021/06/01 08:49:32;;;;;;;5.43;5.18;;;;;;;22.52;31.17;101404.16;4411888;32;20060;-70
2021/06/01 08:51:57;;;;;;;5.30;5.00;;;;;;;22.73;32.71;101404.00;4413707;32;20681;-70
2021/06/01 08:54:22;;;;;;;4.90;4.70;;;;;;;23.00;30.82;101389.87;4428196;32;20081;-70
2021/06/01 08:56:48;;;;;;;5.10;4.90;;;;;;;23.04;30.82;101388.66;4423364;32;20083;-71
2021/06/01 08:59:13;;;;;;;5.00;4.80;;;;;;;23.12;29.66;101392.44;4428432;32;20076;-71
2021/06/01 09:01:39;;;;;;;5.20;4.90;;;;;;;22.98;29.79;101386.50;4428027;32;20127;-71
2021/06/01 09:04:10;;;;;;;5.20;4.90;;;;;;;23.15;30.23;101392.13;4413767;32;20810;-70
2021/06/01 09:06:42;;;;;;;5.40;5.10;;;;;;;23.21;31.08;101378.16;4426644;32;20065;-70
2021/06/01 09:09:35;;;;;;;5.28;5.07;;;;;;;23.09;30.43;101375.69;4429465;32;20171;-70
2021/06/01 09:14:58;;;;;;;5.37;5.07;;;;;;;23.43;29.87;101376.94;4439046;32;20196;-69
2021/06/01 09:22:45;;;;;;;5.10;4.90;;;;;;;23.32;28.49;101372.63;4449536;32;20072;-70
2021/06/01 09:25:23;;;;;;;5.18;4.97;;;;;;;23.51;27.34;101369.03;4444554;32;20137;-70
2021/06/01 09:27:50;;;;;;;5.05;4.85;;;;;;;23.57;29.66;101367.59;4457007;32;20082;-69
2021/06/01 09:30:31;;;;;;;5.50;5.20;;;;;;;23.64;29.17;101369.53;4444120;32;20577;-71
2021/06/01 09:32:56;;;;;;;5.20;5.00;;;;;;;23.80;29.66;101365.37;4465946;32;20091;-67
2021/06/01 09:35:22;;;;;;;5.15;4.85;;;;;;;23.33;28.44;101373.47;4443258;32;20605;-69
2021/06/01 09:37:47;;;;;;;5.20;5.00;;;;;;;23.08;29.19;101365.94;4440968;32;20087;-69
2021/06/01 09:40:18;;;;;;;5.05;4.85;;;;;;;22.86;30.18;101350.19;4454867;32;20068;-69
2021/06/01 09:42:48;;;;;;;5.05;4.85;;;;;;;23.04;29.54;101353.84;4443717;32;20084;-67
2021/06/01 09:45:20;;;;;;;5.00;4.80;;;;;;;23.12;29.64;101331.69;4451714;32;20072;-67
2021/06/01 09:47:56;;;;;;;5.10;4.90;;;;;;;23.30;28.66;101343.31;4444086;32;20110;-67
2021/06/01 09:50:35;;;;;;;5.43;5.03;;;;;;;23.68;29.27;101354.00;4455852;32;20716;-69
2021/06/01 09:53:11;;;;;;;4.90;4.70;;;;;;;23.85;28.62;101339.81;4432885;32;20082;-69
2021/06/01 09:55:47;;;;;;;5.10;4.78;;;;;;;24.07;27.52;101343.03;4459532;32;20580;-70
2021/06/01 09:58:23;;;;;;;5.20;5.00;;;;;;;24.06;28.43;101333.31;4451841;32;20091;-70
2021/06/01 10:00:49;;;;;;;5.40;5.20;;;;;;;23.76;27.37;101326.44;4443450;32;20067;-70
2021/06/01 10:03:21;;;;;;;5.10;4.90;;;;;;;23.36;27.37;101336.53;4439862;32;20065;-70
2021/06/01 10:05:48;;;;;;;5.00;4.80;;;;;;;23.70;29.12;101330.56;4441282;32;20138;-69
2021/06/01 10:08:18;;;;;;;5.28;4.97;;;;;;;23.59;27.14;101323.56;4429532;32;20598;-69
2021/06/01 10:10:59;;;;;;;4.72;4.53;;;;;;;23.73;28.67;101324.91;4455762;32;20076;-71
2021/06/01 10:13:27;;;;;;;5.12;4.82;;;;;;;23.80;28.17;101309.94;4453324;32;20059;-69
2021/06/01 10:15:53;;;;;;;5.20;4.90;;;;;;;23.67;28.41;101315.66;4441863;32;20115;-69
2021/06/01 10:18:19;;;;;;;5.10;4.90;;;;;;;23.72;28.69;101323.22;4455644;32;20079;-69
2021/06/01 10:20:45;;;;;;;5.05;4.85;;;;;;;23.85;27.65;101313.03;4443937;32;20095;-69
2021/06/01 10:23:10;;;;;;;4.78;4.57;;;;;;;23.82;27.68;101294.53;4457418;32;20071;-71
2021/06/01 10:25:36;;;;;;;4.80;4.60;;;;;;;24.05;26.46;101310.16;4440754;32;20095;-69
2021/06/01 10:28:04;;;;;;;5.00;4.80;;;;;;;23.48;26.49;101297.84;4428010;32;20068;-69
2021/06/01 10:30:30;;;;;;;5.35;5.05;;;;;;;23.73;27.47;101302.63;4456013;32;20698;-69
2021/06/01 10:33:17;;;;;;;4.90;4.70;;;;;;;24.15;27.11;101299.38;4453881;32;20098;-69
2021/06/01 10:35:52;;;;;;;4.72;4.53;;;;;;;23.46;25.46;101162.37;4448303;32;20084;-70
2021/06/01 10:44:06;;;;;;;4.95;4.75;;;;;;;25.02;25.24;101300.34;4458947;32;20091;-69
2021/06/01 10:52:24;;;;;;;5.45;5.15;;;;;;;25.00;25.78;101291.63;4464670;32;20925;-71
2021/06/01 10:54:57;;;;;;;4.97;4.78;;;;;;;24.91;25.14;101277.28;4441422;32;20072;-67
2021/06/01 10:57:22;;;;;;;;;;;;;;;24.56;26.04;101235.34;4443224;32;20339;-67
2021/06/01 11:02:22;;;;;;;5.10;4.90;;;;;;;24.56;26.60;101271.06;4454262;32;20077;-67
2021/06/01 11:05:11;;;;;;;4.80;4.60;;;;;;;24.30;25.79;101268.31;4441718;32;20056;-68
2021/06/01 11:07:56;;;;;;;5.00;4.80;;;;;;;24.50;25.27;101271.69;4452708;32;20123;-67
2021/06/01 11:10:41;;;;;;;4.85;4.65;;;;;;;24.80;26.07;101269.53;4460402;32;20068;-67
2021/06/01 11:13:10;;;;;;;5.55;5.15;;;;;;;24.45;26.42;101271.28;4445197;32;20827;-67
2021/06/01 11:15:39;;;;;;;5.45;5.15;;;;;;;24.46;25.40;101264.91;4450593;32;20072;-67
2021/06/01 11:18:15;;;;;;;4.93;4.72;;;;;;;24.93;25.86;101258.34;4455879;32;20076;-68
2021/06/01 11:20:59;;;;;;;5.20;5.00;;;;;;;25.08;24.74;101262.12;4443060;32;20132;-69
2021/06/01 11:23:36;;;;;;;5.20;5.00;;;;;;;24.87;26.41;101260.66;4458883;32;20783;-68
2021/06/01 11:33:55;;;;;;;5.20;4.90;;;;;;;25.30;25.01;101235.66;4462325;32;20133;-68
2021/06/01 11:36:21;;;;;;;5.40;5.10;;;;;;;25.16;25.44;101245.16;4441023;32;20084;-69
2021/06/01 11:38:53;;;;;;;5.32;5.12;;;;;;;24.75;24.86;101237.78;4452324;32;20111;-68
2021/06/01 11:43:48;;;;;;;5.00;4.80;;;;;;;24.62;26.17;101234.69;4450475;32;19991;-69
2021/06/01 11:51:27;;;;;;;5.07;4.87;;;;;;;24.73;25.33;101226.34;4461977;32;20813;-68
2021/06/01 11:53:53;;;;;;;5.05;4.85;;;;;;;24.78;25.12;101223.22;4437769;32;20847;-68
2021/06/01 12:18:40;;;;;;;5.03;4.82;;;;;;;25.29;24.82;101189.16;4457361;32;20128;-67
2021/06/01 12:21:17;;;;;;;5.00;4.80;;;;;;;25.45;25.29;101188.34;4458066;31;20067;-68
2021/06/01 12:23:46;;;;;;;5.25;4.95;;;;;;;25.27;25.01;101185.81;4421102;32;20115;-68
2021/06/01 12:26:16;;;;;;;5.57;5.30;;;;;;;25.18;24.16;101176.03;4437455;32;20077;-67
2021/06/01 12:31:56;;;;;;;;;;;;;;;25.57;23.71;101167.38;4443950;32;20149;-68
2021/06/01 12:34:29;;;;;;;5.00;4.80;;;;;;;25.56;24.62;101160.31;4446155;32;19978;-68
2021/06/01 13:05:33;;;;;;;5.55;5.25;;;;;;;26.37;21.66;101139.75;4437285;32;20074;-72